Time;durP1;ratioP1;P1;durP2;ratioP2;P2;SDS_P1;SDS_P2;PMS_P1;PMS_P2;Temp;Humidity;BMP_temperature;BMP_pressure;BME280_temperature;BME280_humidity;BME280_pressure;Samples;Min_cycle;Max_cycle;Signal;HPM_P1;HPM_P2
2022/07/16 00:07:10;;;;;;;4.47;2.40;;;17.30;99.90;;;;;;20822830;22;20557;-76
2022/07/16 00:17:11;;;;;;;8.13;3.17;;;17.60;99.90;;;;;;20826838;28;20087;-76
2022/07/16 00:27:12;;;;;;;4.97;2.40;;;17.30;99.90;;;;;;20826900;28;20095;-76
2022/07/16 00:37:13;;;;;;;6.33;2.87;;;17.20;99.90;;;;;;20825166;28;20056;-76
2022/07/16 00:47:14;;;;;;;3.93;2.33;;;17.20;99.90;;;;;;20825808;28;20560;-76
2022/07/16 00:57:15;;;;;;;2.67;2.17;;;17.40;99.90;;;;;;20825381;28;20042;-75
2022/07/16 01:07:17;;;;;;;4.73;2.63;;;16.90;99.90;;;;;;20824555;28;20531;-75
2022/07/16 01:17:17;;;;;;;4.85;2.38;;;16.80;99.90;;;;;;20824203;28;20048;-76
2022/07/16 01:27:19;;;;;;;8.90;2.83;;;16.50;99.90;;;;;;20832667;28;20034;-76
2022/07/16 01:37:20;;;;;;;7.28;2.45;;;16.70;99.90;;;;;;20840080;28;20033;-76
2022/07/16 01:47:21;;;;;;;3.83;2.03;;;16.40;99.90;;;;;;20837996;28;20041;-76
2022/07/16 01:57:22;;;;;;;5.70;2.53;;;16.40;99.90;;;;;;20837992;28;20041;-76
2022/07/16 02:07:23;;;;;;;6.17;2.60;;;15.90;99.90;;;;;;20837690;28;20045;-75
2022/07/16 02:17:25;;;;;;;5.73;3.00;;;15.80;99.90;;;;;;20836121;28;20056;-76
2022/07/16 02:27:26;;;;;;;5.95;2.80;;;15.20;99.90;;;;;;20836323;28;20560;-77
2022/07/16 02:37:26;;;;;;;5.20;2.63;;;15.00;99.90;;;;;;20834286;28;20045;-76
2022/07/16 02:47:27;;;;;;;4.43;3.10;;;14.50;99.90;;;;;;20834776;28;20048;-77
2022/07/16 02:57:28;;;;;;;3.03;2.33;;;14.30;99.90;;;;;;20834200;28;20128;-76
2022/07/16 03:07:29;;;;;;;5.07;2.50;;;14.20;99.90;;;;;;20831861;28;20044;-76
2022/07/16 03:17:30;;;;;;;5.13;3.10;;;14.20;99.90;;;;;;20831932;28;20042;-76
2022/07/16 03:27:31;;;;;;;3.30;2.50;;;13.80;99.90;;;;;;20829866;28;20033;-76
2022/07/16 03:37:32;;;;;;;4.63;2.50;;;14.10;99.90;;;;;;20831040;28;20037;-76
2022/07/16 03:47:33;;;;;;;6.97;2.80;;;14.00;99.90;;;;;;20828395;28;20448;-77
2022/07/16 03:57:34;;;;;;;8.57;2.83;;;13.70;99.90;;;;;;20881838;28;20045;-76
2022/07/16 04:07:35;;;;;;;8.50;3.37;;;13.40;99.90;;;;;;20910615;28;20052;-76
2022/07/16 04:17:36;;;;;;;3.67;2.90;;;13.30;99.90;;;;;;20910303;28;20060;-76
2022/07/16 04:27:38;;;;;;;7.67;3.23;;;13.20;99.90;;;;;;20909620;28;20098;-76
2022/07/16 04:37:39;;;;;;;4.33;3.00;;;13.20;99.90;;;;;;20909098;28;20711;-76
2022/07/16 04:47:40;;;;;;;7.28;3.72;;;13.40;99.90;;;;;;20908403;28;20052;-77
2022/07/16 04:57:41;;;;;;;5.37;2.80;;;13.80;99.90;;;;;;20908803;28;20060;-77
2022/07/16 05:07:42;;;;;;;6.70;3.07;;;14.20;99.90;;;;;;20907769;28;20033;-78
2022/07/16 05:17:42;;;;;;;5.57;3.00;;;14.60;99.90;;;;;;20908324;28;20112;-77
2022/07/16 05:27:44;;;;;;;7.20;3.27;;;15.10;99.90;;;;;;20906789;28;20397;-77
2022/07/16 05:37:45;;;;;;;9.33;4.20;;;15.70;99.90;;;;;;20905596;28;20060;-77
2022/07/16 05:47:46;;;;;;;4.63;2.93;;;15.90;99.90;;;;;;20909759;28;20288;-77
2022/07/16 05:57:46;;;;;;;4.60;3.63;;;16.50;99.90;;;;;;20913813;28;20061;-77
2022/07/16 06:07:47;;;;;;;7.03;3.53;;;16.90;99.90;;;;;;20928417;22;20060;-78
2022/07/16 06:17:48;;;;;;;6.50;4.17;;;17.10;99.90;;;;;;20978246;28;20064;-80
2022/07/16 06:27:49;;;;;;;5.23;3.90;;;17.50;99.90;;;;;;21019477;28;20101;-78
2022/07/16 06:37:49;;;;;;;6.27;4.17;;;18.30;99.90;;;;;;20999393;28;20029;-78
2022/07/16 06:47:50;;;;;;;7.50;3.87;;;18.40;99.90;;;;;;20970353;28;20385;-77
2022/07/16 06:57:51;;;;;;;9.33;4.10;;;18.70;99.90;;;;;;21001364;28;20037;-77
2022/07/16 07:07:52;;;;;;;4.80;3.23;;;19.00;99.90;;;;;;20998499;28;20086;-77
2022/07/16 07:17:53;;;;;;;4.07;2.70;;;19.50;99.90;;;;;;20977762;28;20132;-77
2022/07/16 07:27:55;;;;;;;7.60;3.10;;;20.30;99.90;;;;;;20935361;28;20509;-77
2022/07/16 07:37:56;;;;;;;4.05;2.85;;;21.00;99.90;;;;;;20909620;28;20799;-77
2022/07/16 07:47:57;;;;;;;5.90;3.07;;;21.50;99.90;;;;;;20904097;28;20049;-77
2022/07/16 07:57:58;;;;;;;14.43;2.90;;;21.90;99.90;;;;;;20958685;28;20132;-77
2022/07/16 08:07:59;;;;;;;8.27;3.67;;;22.80;99.90;;;;;;20949082;28;20575;-77
2022/07/16 08:18:00;;;;;;;5.13;2.43;;;23.20;99.90;;;;;;20940651;28;20135;-77
2022/07/16 08:28:01;;;;;;;3.80;2.20;;;24.40;99.90;;;;;;20967218;28;20033;-78
2022/07/16 08:38:02;;;;;;;8.00;2.30;;;23.80;99.90;;;;;;20991120;28;20045;-78
2022/07/16 08:48:03;;;;;;;5.78;2.30;;;24.90;99.90;;;;;;20989235;28;20512;-77
2022/07/16 08:58:06;;;;;;;;;;;25.30;99.90;;;;;;20973250;28;20764;-79
2022/07/16 09:08:07;;;;;;;5.00;2.13;;;25.30;99.90;;;;;;20976244;28;19916;-78
2022/07/16 09:18:22;;;;;;;;;;;25.80;99.90;;;;;;20996746;28;20032;-78
2022/07/16 09:28:25;;;;;;;3.83;1.92;;;26.30;99.90;;;;;;20973408;28;20288;-78
2022/07/16 09:38:25;;;;;;;5.80;2.03;;;26.40;99.90;;;;;;20997271;28;20045;-78
2022/07/16 09:48:29;;;;;;;3.55;1.98;;;26.40;99.70;;;;;;20987097;28;20513;-78
2022/07/16 09:58:31;;;;;;;2.17;1.50;;;27.40;98.20;;;;;;20980802;28;20029;-79
2022/07/16 10:08:32;;;;;;;4.93;2.05;;;28.50;95.90;;;;;;20971307;28;20162;-76
2022/07/16 10:18:44;;;;;;;2.67;1.63;;;26.40;96.30;;;;;;20972321;28;20063;-78
2022/07/16 10:28:51;;;;;;;5.40;1.67;;;28.30;95.50;;;;;;20966127;28;20040;-80
2022/07/16 10:39:05;;;;;;;5.63;1.60;;;28.10;95.20;;;;;;20970419;28;20121;-79
2022/07/16 10:49:13;;;;;;;3.92;2.03;;;28.60;95.10;;;;;;20984189;28;20051;-77
2022/07/16 10:59:16;;;;;;;3.53;1.63;;;29.30;96.40;;;;;;20971940;28;20067;-77
2022/07/16 11:09:30;;;;;;;3.90;1.80;;;29.00;95.90;;;;;;20997286;28;20036;-78
2022/07/16 11:19:40;;;;;;;3.03;2.25;;;27.90;94.00;;;;;;20957868;28;20056;-79
2022/07/16 11:29:41;;;;;;;2.80;1.80;;;28.50;95.60;;;;;;20937167;28;20315;-77
2022/07/16 11:39:42;;;;;;;4.45;2.25;;;29.10;95.30;;;;;;20941208;28;20040;-79
2022/07/16 11:49:44;;;;;;;5.13;1.83;;;28.40;96.30;;;;;;20968510;28;20044;-76
2022/07/16 11:59:49;;;;;;;7.45;2.15;;;28.90;96.50;;;;;;20923344;28;20045;-77
2022/07/16 12:09:51;;;;;;;5.60;2.22;;;28.50;95.10;;;;;;20986497;23;20500;-78
2022/07/16 12:20:12;;;;;;;5.05;2.00;;;29.00;95.70;;;;;;20997886;28;20024;-80
2022/07/16 12:30:13;;;;;;;4.27;1.97;;;29.60;95.60;;;;;;20957481;28;20067;-80
2022/07/16 12:40:14;;;;;;;4.57;2.28;;;29.70;94.60;;;;;;20940636;28;20041;-78
2022/07/16 12:50:15;;;;;;;4.50;2.13;;;30.20;94.70;;;;;;20957497;28;20037;-78
2022/07/16 13:00:16;;;;;;;6.40;1.80;;;30.00;93.60;;;;;;20984506;28;20040;-80
2022/07/16 13:10:16;;;;;;;4.90;1.88;;;30.10;94.30;;;;;;20981316;28;20050;-79
2022/07/16 13:20:17;;;;;;;2.72;2.08;;;29.50;96.10;;;;;;20968890;28;20488;-79
2022/07/16 13:30:18;;;;;;;4.90;2.00;;;29.60;94.00;;;;;;20940806;28;20029;-77
2022/07/16 13:40:19;;;;;;;6.47;2.17;;;29.20;94.00;;;;;;20990339;28;20056;-80
2022/07/16 13:50:20;;;;;;;9.23;1.73;;;29.50;94.40;;;;;;21008344;28;20100;-81
2022/07/16 14:00:22;;;;;;;3.97;2.05;;;29.30;94.40;;;;;;20984427;28;20036;-78
2022/07/16 14:10:23;;;;;;;4.70;2.20;;;29.80;94.10;;;;;;20961685;28;20412;-78
2022/07/16 14:20:24;;;;;;;6.05;2.17;;;28.90;94.30;;;;;;20914034;28;20578;-78
2022/07/16 14:30:25;;;;;;;3.03;1.88;;;29.30;95.00;;;;;;20916017;28;20381;-78
2022/07/16 14:40:26;;;;;;;3.10;2.00;;;29.00;94.30;;;;;;20933985;28;20048;-78
2022/07/16 14:50:27;;;;;;;6.93;2.05;;;29.10;94.70;;;;;;20936500;28;20037;-77
2022/07/16 15:00:28;;;;;;;5.65;2.55;;;29.10;94.40;;;;;;20938578;28;20040;-77
2022/07/16 15:10:29;;;;;;;3.78;1.73;;;29.20;93.60;;;;;;20960960;28;20579;-78
2022/07/16 15:20:31;;;;;;;2.85;1.85;;;29.00;93.50;;;;;;20957624;28;20067;-77
2022/07/16 15:30:31;;;;;;;2.60;2.13;;;28.60;94.00;;;;;;21002909;28;20033;-77
2022/07/16 15:40:32;;;;;;;4.22;1.42;;;28.70;93.70;;;;;;20983707;28;20143;-75
2022/07/16 15:50:33;;;;;;;2.40;1.58;;;28.50;92.80;;;;;;20974633;28;20032;-77
2022/07/16 16:00:34;;;;;;;4.75;1.95;;;28.20;92.50;;;;;;21015383;28;20115;-79
2022/07/16 16:10:35;;;;;;;4.03;2.33;;;28.40;92.40;;;;;;20982135;28;20037;-78
2022/07/16 16:20:36;;;;;;;3.47;1.70;;;27.80;92.30;;;;;;20937015;28;20043;-79
2022/07/16 16:30:37;;;;;;;3.80;1.58;;;27.90;92.60;;;;;;20990627;28;20045;-79
2022/07/16 16:40:38;;;;;;;5.43;1.85;;;27.80;92.80;;;;;;21006284;28;20543;-79
2022/07/16 16:50:39;;;;;;;3.10;1.77;;;27.70;92.70;;;;;;21004419;28;20041;-81
2022/07/16 17:00:40;;;;;;;8.05;1.80;;;27.70;92.80;;;;;;21004537;28;20044;-78
2022/07/16 17:10:41;;;;;;;6.97;1.98;;;27.40;92.80;;;;;;20970108;28;20100;-77
2022/07/16 17:20:42;;;;;;;7.65;1.80;;;27.50;93.10;;;;;;20960035;28;20044;-79
2022/07/16 17:30:43;;;;;;;3.85;2.00;;;27.80;92.80;;;;;;21001700;28;20047;-79
2022/07/16 17:40:44;;;;;;;2.28;1.42;;;27.60;93.10;;;;;;20981280;28;20134;-78
2022/07/16 17:50:44;;;;;;;4.28;1.60;;;27.40;92.50;;;;;;20960277;28;20068;-77
2022/07/16 18:00:45;;;;;;;2.15;1.60;;;27.30;92.90;;;;;;20959247;28;20044;-79
2022/07/16 18:10:46;;;;;;;5.07;1.67;;;28.10;91.90;;;;;;20972167;28;20045;-79
2022/07/16 18:20:47;;;;;;;3.42;1.40;;;29.40;91.40;;;;;;21003016;28;20047;-80
2022/07/16 18:30:48;;;;;;;6.10;1.67;;;29.40;91.80;;;;;;21009362;28;20028;-78
2022/07/16 18:40:49;;;;;;;6.40;1.55;;;27.40;93.30;;;;;;21017764;28;20040;-78
2022/07/16 18:50:50;;;;;;;3.90;1.42;;;26.80;94.30;;;;;;21028676;28;20419;-78
2022/07/16 19:00:51;;;;;;;2.05;1.17;;;25.60;95.30;;;;;;21027863;28;20048;-78
2022/07/16 19:10:52;;;;;;;6.30;1.45;;;24.90;96.80;;;;;;21010853;28;20060;-78
2022/07/16 19:20:53;;;;;;;;;;;24.20;98.40;;;;;;20973549;28;20123;-78
2022/07/16 19:30:54;;;;;;;2.40;1.50;;;23.50;99.30;;;;;;21027803;28;20006;-78
2022/07/16 19:40:55;;;;;;;4.43;1.83;;;22.70;99.90;;;;;;21031150;28;20032;-78
2022/07/16 19:50:56;;;;;;;2.28;1.65;;;22.30;99.90;;;;;;21007178;28;20043;-78
2022/07/16 20:00:57;;;;;;;2.07;1.40;;;21.70;99.90;;;;;;21024372;28;20036;-82
2022/07/16 20:10:59;;;;;;;3.77;1.77;;;21.50;99.90;;;;;;21027088;28;20045;-80
2022/07/16 20:20:59;;;;;;;2.78;1.33;;;21.20;99.90;;;;;;20948061;28;20417;-80
2022/07/16 20:31:00;;;;;;;4.67;1.57;;;21.00;99.90;;;;;;20953998;28;20132;-83
2022/07/16 20:41:01;;;;;;;4.30;1.43;;;21.50;99.90;;;;;;20932272;28;20447;-81
2022/07/16 20:51:02;;;;;;;3.27;1.37;;;20.70;99.90;;;;;;20956500;28;20120;-79
2022/07/16 21:01:03;;;;;;;3.30;1.47;;;20.50;99.90;;;;;;20933005;28;20052;-78
2022/07/16 21:11:04;;;;;;;3.17;1.43;;;20.30;99.90;;;;;;20917179;28;20032;-81
2022/07/16 21:21:05;;;;;;;3.17;1.33;;;20.40;99.90;;;;;;21012960;28;20059;-79
2022/07/16 21:31:05;;;;;;;3.20;1.30;;;20.90;98.60;;;;;;21003344;28;20040;-79
2022/07/16 21:41:06;;;;;;;3.07;1.27;;;20.70;99.10;;;;;;21000698;28;20496;-77
2022/07/16 21:51:08;;;;;;;4.87;1.40;;;20.60;99.00;;;;;;21015382;28;20040;-78
2022/07/16 22:01:09;;;;;;;2.92;1.35;;;20.40;98.90;;;;;;21009557;28;20040;-79
2022/07/16 22:11:10;;;;;;;2.17;1.37;;;20.20;99.20;;;;;;21014178;28;20044;-80
2022/07/16 22:21:10;;;;;;;9.50;1.60;;;20.00;99.50;;;;;;21008584;28;20479;-78
2022/07/16 22:31:11;;;;;;;1.93;1.30;;;19.50;99.90;;;;;;21002800;28;20629;-78
2022/07/16 22:41:12;;;;;;;2.47;1.37;;;19.30;99.90;;;;;;21001907;28;20043;-78
2022/07/16 22:51:13;;;;;;;5.83;1.37;;;19.10;99.90;;;;;;20999801;28;20041;-77
2022/07/16 23:01:14;;;;;;;4.23;1.30;;;19.10;99.90;;;;;;21003132;28;20040;-79
2022/07/16 23:11:15;;;;;;;5.30;1.60;;;18.80;99.90;;;;;;21012337;28;20483;-78
2022/07/16 23:21:16;;;;;;;3.80;1.30;;;18.80;99.90;;;;;;20998014;28;20067;-77
2022/07/16 23:31:17;;;;;;;3.20;1.60;;;18.60;99.90;;;;;;20997177;28;20049;-79
2022/07/16 23:41:17;;;;;;;2.57;1.60;;;18.60;99.90;;;;;;21009037;28;20050;-78
2022/07/16 23:51:19;;;;;;;3.77;1.60;;;18.50;99.90;;;;;;21028640;28;20044;-80
